createdAt,value
2018-02-01T00:00:47.747Z,1.36
2018-02-01T00:01:47.648Z,1.36
2018-02-01T00:02:47.645Z,1.35
2018-02-01T00:03:47.665Z,1.34
2018-02-01T00:04:47.654Z,1.31
2018-02-01T00:05:47.683Z,1.31
2018-02-01T00:06:47.662Z,1.31
2018-02-01T00:07:47.685Z,1.31
2018-02-01T00:08:47.675Z,1.31
2018-02-01T00:09:47.701Z,1.30
2018-02-01T00:10:47.668Z,1.30
2018-02-01T00:11:47.693Z,1.28
2018-02-01T00:12:47.676Z,1.27
2018-02-01T00:13:47.729Z,1.28
2018-02-01T00:14:47.687Z,1.28
2018-02-01T00:15:47.739Z,1.28
2018-02-01T00:16:47.710Z,1.30
2018-02-01T00:17:47.752Z,1.28
2018-02-01T00:18:47.709Z,1.30
2018-02-01T00:19:47.768Z,1.28
2018-02-01T00:20:47.713Z,1.27
2018-02-01T00:21:47.778Z,1.27
2018-02-01T00:22:47.715Z,1.27
2018-02-01T00:23:47.722Z,1.26
2018-02-01T00:24:47.717Z,1.26
2018-02-01T00:25:47.723Z,1.26
2018-02-01T00:26:47.878Z,1.26
2018-02-01T00:27:47.822Z,1.26
2018-02-01T00:28:47.736Z,1.26
2018-02-01T00:29:47.834Z,1.27
2018-02-01T00:30:47.771Z,1.27
2018-02-01T00:31:47.748Z,1.27
2018-02-01T00:32:47.851Z,1.27
2018-02-01T00:33:47.769Z,1.26
2018-02-01T00:34:47.861Z,1.24
2018-02-01T00:35:47.768Z,1.23
2018-02-01T00:36:47.764Z,1.21
2018-02-01T00:37:47.764Z,1.20
2018-02-01T00:38:47.773Z,1.18
2018-02-01T00:39:47.812Z,1.17
2018-02-01T00:40:47.785Z,1.17
2018-02-01T00:41:47.783Z,1.16
2018-02-01T00:42:47.787Z,1.16
2018-02-01T00:43:47.786Z,1.13
2018-02-01T00:44:47.846Z,1.13
2018-02-01T00:45:47.793Z,1.12
2018-02-01T00:46:47.797Z,1.13
2018-02-01T00:47:47.844Z,1.12
2018-02-01T00:48:47.814Z,1.13
2018-02-01T00:49:47.858Z,1.12
2018-02-01T00:50:47.818Z,1.13
2018-02-01T00:51:47.830Z,1.16
2018-02-01T00:52:47.886Z,1.16
2018-02-01T00:53:47.829Z,1.17
2018-02-01T00:54:47.822Z,1.17
2018-02-01T00:55:48.925Z,1.17
2018-02-01T00:56:47.832Z,1.17
2018-02-01T00:57:47.907Z,1.18
2018-02-01T00:58:47.835Z,1.20
2018-02-01T00:59:47.924Z,1.18
2018-02-01T01:00:47.852Z,1.20
2018-02-01T01:01:47.930Z,1.20
2018-02-01T01:02:47.851Z,1.20
2018-02-01T01:03:47.853Z,1.21
2018-02-01T01:04:47.969Z,1.20
2018-02-01T01:05:47.879Z,1.18
2018-02-01T01:06:47.960Z,1.18
2018-02-01T01:07:47.866Z,1.18
2018-02-01T01:08:47.976Z,1.17
2018-02-01T01:09:47.880Z,1.17
2018-02-01T01:10:47.989Z,1.16
2018-02-01T01:11:47.882Z,1.16
2018-02-01T01:12:47.919Z,1.16
2018-02-01T01:13:47.890Z,1.17
2018-02-01T01:14:47.908Z,1.17
2018-02-01T01:15:47.926Z,1.16
2018-02-01T01:16:47.913Z,1.17
2018-02-01T01:17:47.973Z,1.18
2018-02-01T01:18:47.912Z,1.20
2018-02-01T01:19:47.947Z,1.21
2018-02-01T01:20:47.920Z,1.18
2018-02-01T01:21:47.925Z,1.18
2018-02-01T01:22:47.934Z,1.18
2018-02-01T01:23:47.938Z,1.16
2018-02-01T01:24:47.927Z,1.13
2018-02-01T01:25:47.979Z,1.13
2018-02-01T01:26:47.953Z,1.13
2018-02-01T01:27:47.935Z,1.13
2018-02-01T01:28:47.941Z,1.13
2018-02-01T01:29:48.008Z,1.16
2018-02-01T01:30:47.953Z,1.16
2018-02-01T01:31:48.080Z,1.17
2018-02-01T01:32:47.965Z,1.16
2018-02-01T01:33:48.031Z,1.20
2018-02-01T01:34:47.966Z,1.17
2018-02-01T01:35:48.056Z,1.17
2018-02-01T01:36:47.964Z,1.17
2018-02-01T01:37:48.091Z,1.18
2018-02-01T01:38:47.974Z,1.20
2018-02-01T01:39:48.076Z,1.21
2018-02-01T01:40:47.990Z,1.23
2018-02-01T01:41:47.982Z,1.24
2018-02-01T01:42:48.020Z,1.26
2018-02-01T01:43:48.020Z,1.27
2018-02-01T01:44:48.101Z,1.26
2018-02-01T01:45:48.010Z,1.24
2018-02-01T01:46:48.012Z,1.26
2018-02-01T01:47:48.067Z,1.26
2018-02-01T01:48:48.018Z,1.26
2018-02-01T01:49:48.038Z,1.24
2018-02-01T01:50:48.040Z,1.26
2018-02-01T01:51:48.055Z,1.23
2018-02-01T01:52:48.028Z,1.26
2018-02-01T01:53:48.067Z,1.26
2018-02-01T01:54:48.044Z,1.26
2018-02-01T01:55:48.072Z,1.24
2018-02-01T01:56:48.037Z,1.27
2018-02-01T01:57:48.041Z,1.26
2018-02-01T01:58:48.045Z,1.26
2018-02-01T01:59:48.107Z,1.24
2018-02-01T02:00:48.053Z,1.23
2018-02-01T02:01:48.122Z,1.20
2018-02-01T02:02:48.058Z,1.18
2018-02-01T02:03:48.128Z,1.20
2018-02-01T02:04:48.061Z,1.18
2018-02-01T02:05:48.160Z,1.18
2018-02-01T02:06:48.066Z,1.20
2018-02-01T02:07:48.152Z,1.21
2018-02-01T02:08:48.075Z,1.18
2018-02-01T02:09:48.084Z,1.18
2018-02-01T02:10:48.173Z,1.18
2018-02-01T02:11:48.096Z,1.17
2018-02-01T02:12:48.192Z,1.17
2018-02-01T02:13:48.096Z,1.20
2018-02-01T02:14:48.214Z,1.20
2018-02-01T02:15:48.110Z,1.18
2018-02-01T02:16:48.232Z,1.18
2018-02-01T02:17:48.107Z,1.18
2018-02-01T02:18:48.123Z,1.17
2018-02-01T02:19:48.109Z,1.18
2018-02-01T02:20:48.138Z,1.17
2018-02-01T02:21:48.115Z,1.17
2018-02-01T02:22:48.188Z,1.18
2018-02-01T02:23:48.126Z,1.17
2018-02-01T02:24:48.178Z,1.17
2018-02-01T02:25:48.129Z,1.17
2018-02-01T02:26:48.135Z,1.16
2018-02-01T02:27:48.174Z,1.13
2018-02-01T02:28:48.144Z,1.12
2018-02-01T02:29:48.161Z,1.12
2018-02-01T02:30:48.207Z,1.12
2018-02-01T02:31:48.172Z,1.10
2018-02-01T02:32:48.213Z,1.10
2018-02-01T02:33:48.156Z,1.09
2018-02-01T02:34:48.159Z,1.09
2018-02-01T02:35:48.178Z,1.09
2018-02-01T02:36:48.244Z,1.08
2018-02-01T02:37:48.171Z,1.06
2018-02-01T02:38:48.256Z,1.03
2018-02-01T02:39:48.184Z,1.03
2018-02-01T02:40:48.262Z,1.02
2018-02-01T02:41:48.186Z,1.00
2018-02-01T02:42:48.194Z,0.99
2018-02-01T02:43:48.309Z,0.98
2018-02-01T02:44:48.214Z,0.96
2018-02-01T02:45:48.294Z,0.96
2018-02-01T02:46:48.208Z,0.91
2018-02-01T02:47:48.326Z,0.92
2018-02-01T02:48:48.232Z,0.91
2018-02-01T02:49:48.327Z,0.90
2018-02-01T02:50:48.224Z,0.88
2018-02-01T02:51:48.233Z,0.90
2018-02-01T02:52:48.222Z,0.88
2018-02-01T02:53:48.220Z,0.87
2018-02-01T02:54:48.273Z,0.87
2018-02-01T02:55:48.294Z,0.84
2018-02-01T02:56:48.271Z,0.84
2018-02-01T02:57:48.233Z,0.84
2018-02-01T02:58:48.282Z,0.82
2018-02-01T02:59:48.249Z,0.81
2018-02-01T03:00:48.297Z,0.80
2018-02-01T03:01:48.254Z,0.78
2018-02-01T03:02:48.342Z,0.76
2018-02-01T03:03:48.261Z,0.74
2018-02-01T03:04:48.267Z,0.74
2018-02-01T03:05:48.285Z,0.74
2018-02-01T03:06:48.344Z,0.74
2018-02-01T03:07:48.270Z,0.74
2018-02-01T03:08:48.357Z,0.76
2018-02-01T03:09:48.311Z,0.76
2018-02-01T03:10:48.276Z,0.76
2018-02-01T03:11:48.370Z,0.74
2018-02-01T03:12:48.279Z,0.76
2018-02-01T03:13:48.381Z,0.76
2018-02-01T03:14:48.291Z,0.76
2018-02-01T03:15:48.402Z,0.76
2018-02-01T03:16:48.317Z,0.76
2018-02-01T03:17:48.409Z,0.76
2018-02-01T03:18:48.307Z,0.73
2018-02-01T03:19:48.429Z,0.76
2018-02-01T03:20:48.306Z,0.76
2018-02-01T03:21:48.339Z,0.76
2018-02-01T03:22:48.344Z,0.76
2018-02-01T03:23:48.362Z,0.76
2018-02-01T03:24:48.343Z,0.74
2018-02-01T03:25:48.319Z,0.74
2018-02-01T03:26:48.329Z,0.73
2018-02-01T03:27:48.416Z,0.73
2018-02-01T03:28:48.331Z,0.73
2018-02-01T03:29:48.344Z,0.74
2018-02-01T03:30:48.382Z,0.74
2018-02-01T03:31:48.339Z,0.74
2018-02-01T03:32:48.408Z,0.73
2018-02-01T03:33:48.350Z,0.73
2018-02-01T03:34:48.406Z,0.72
2018-02-01T03:35:48.369Z,0.73
2018-02-01T03:36:48.422Z,0.73
2018-02-01T03:37:48.377Z,0.72
2018-02-01T03:38:49.277Z,0.72
2018-02-01T03:39:48.368Z,0.70
2018-02-01T03:40:48.447Z,0.72
2018-02-01T03:41:48.371Z,0.72
2018-02-01T03:42:48.478Z,0.72
2018-02-01T03:43:48.382Z,0.72
2018-02-01T03:44:48.476Z,0.72
2018-02-01T03:45:48.390Z,0.72
2018-02-01T03:46:48.504Z,0.73
2018-02-01T03:47:48.393Z,0.73
2018-02-01T03:48:48.423Z,0.73
2018-02-01T03:49:48.499Z,0.73
2018-02-01T03:50:48.426Z,0.74
2018-02-01T03:51:48.512Z,0.73
2018-02-01T03:52:48.448Z,0.74
2018-02-01T03:53:48.425Z,0.74
2018-02-01T03:54:48.433Z,0.73
2018-02-01T03:55:48.419Z,0.72
2018-02-01T03:56:48.456Z,0.73
2018-02-01T03:57:48.447Z,0.72
2018-02-01T03:58:48.469Z,0.73
2018-02-01T03:59:48.444Z,0.73
2018-02-01T04:00:48.472Z,0.73
2018-02-01T04:01:48.440Z,0.70
2018-02-01T04:02:48.481Z,0.70
2018-02-01T04:03:48.446Z,0.72
2018-02-01T04:04:48.497Z,0.70
2018-02-01T04:05:48.466Z,0.72
2018-02-01T04:06:48.509Z,0.72
2018-02-01T04:07:48.452Z,0.72
2018-02-01T04:08:48.524Z,0.72
2018-02-01T04:09:48.462Z,0.72
2018-02-01T04:10:48.572Z,0.72
2018-02-01T04:11:48.465Z,0.72
2018-02-01T04:12:48.553Z,0.73
2018-02-01T04:13:48.477Z,0.72
2018-02-01T04:14:48.581Z,0.72
2018-02-01T04:15:48.560Z,0.70
2018-02-01T04:16:48.583Z,0.70
2018-02-01T04:17:48.496Z,0.72
2018-02-01T04:18:48.585Z,0.72
2018-02-01T04:19:48.510Z,0.70
2018-02-01T04:20:48.604Z,0.72
2018-02-01T04:21:48.500Z,0.70
2018-02-01T04:22:48.613Z,0.72
2018-02-01T04:23:48.544Z,0.70
2018-02-01T04:24:48.530Z,0.70
2018-02-01T04:25:48.507Z,0.67
2018-02-01T04:26:48.540Z,0.67
2018-02-01T04:27:48.514Z,0.67
2018-02-01T04:28:48.558Z,0.67
2018-02-01T04:29:48.524Z,0.67
2018-02-01T04:30:48.579Z,0.67
2018-02-01T04:31:48.544Z,0.67
2018-02-01T04:32:48.573Z,0.69
2018-02-01T04:33:48.528Z,0.69
2018-02-01T04:34:49.627Z,0.69
2018-02-01T04:35:48.552Z,0.70
2018-02-01T04:36:48.596Z,0.70
2018-02-01T04:37:48.541Z,0.72
2018-02-01T04:38:48.610Z,0.70
2018-02-01T04:39:48.552Z,0.70
2018-02-01T04:40:48.626Z,0.70
2018-02-01T04:41:48.555Z,0.69
2018-02-01T04:42:48.638Z,0.67
2018-02-01T04:43:48.568Z,0.67
2018-02-01T04:44:48.651Z,0.66
2018-02-01T04:45:48.565Z,0.64
2018-02-01T04:46:49.609Z,0.66
2018-02-01T04:47:48.570Z,0.66
2018-02-01T04:48:48.680Z,0.67
2018-02-01T04:49:48.575Z,0.67
2018-02-01T04:50:48.691Z,0.67
2018-02-01T04:51:48.588Z,0.66
2018-02-01T04:52:48.698Z,0.66
2018-02-01T04:53:48.600Z,0.64
2018-02-01T04:54:48.627Z,0.63
2018-02-01T04:55:48.598Z,0.63
2018-02-01T04:56:48.629Z,0.62
2018-02-01T04:57:48.606Z,0.62
2018-02-01T04:58:48.635Z,0.60
2018-02-01T04:59:48.610Z,0.60
2018-02-01T05:00:48.650Z,0.59
2018-02-01T05:01:48.653Z,0.56
2018-02-01T05:02:48.683Z,0.56
2018-02-01T05:03:48.634Z,0.56
2018-02-01T05:04:48.695Z,0.56
2018-02-01T05:05:48.637Z,0.56
2018-02-01T05:06:48.645Z,0.56
2018-02-01T05:07:48.708Z,0.55
2018-02-01T05:08:48.641Z,0.55
2018-02-01T05:09:48.714Z,0.55
2018-02-01T05:10:48.647Z,0.59
2018-02-01T05:11:48.746Z,0.59
2018-02-01T05:12:48.645Z,0.59
2018-02-01T05:13:48.654Z,0.59
2018-02-01T05:14:48.743Z,0.60
2018-02-01T05:15:48.674Z,0.60
2018-02-01T05:16:48.754Z,0.59
2018-02-01T05:17:48.681Z,0.59
2018-02-01T05:18:48.775Z,0.56
2018-02-01T05:19:48.673Z,0.56
2018-02-01T05:20:48.802Z,0.53
2018-02-01T05:21:48.687Z,0.53
2018-02-01T05:22:48.700Z,0.51
2018-02-01T05:23:48.703Z,0.53
2018-02-01T05:24:49.732Z,0.50
2018-02-01T05:25:48.688Z,0.51
2018-02-01T05:26:48.717Z,0.51
2018-02-01T05:27:48.692Z,0.53
2018-02-01T05:28:48.728Z,0.51
2018-02-01T05:29:48.704Z,0.53
2018-02-01T05:30:48.746Z,0.51
2018-02-01T05:31:48.718Z,0.53
2018-02-01T05:32:48.761Z,0.53
2018-02-01T05:33:48.734Z,0.51
2018-02-01T05:34:48.772Z,0.51
2018-02-01T05:35:48.709Z,0.50
2018-02-01T05:36:49.819Z,0.51
2018-02-01T05:37:48.731Z,0.50
2018-02-01T05:38:48.802Z,0.50
2018-02-01T05:39:48.728Z,0.50
2018-02-01T05:40:48.809Z,0.48
2018-02-01T05:41:48.735Z,0.50
2018-02-01T05:42:48.828Z,0.48
2018-02-01T05:43:48.743Z,0.47
2018-02-01T05:44:48.833Z,0.48
2018-02-01T05:45:48.755Z,0.48
2018-02-01T05:46:48.857Z,0.47
2018-02-01T05:47:48.754Z,0.45
2018-02-01T05:48:49.781Z,0.45
2018-02-01T05:49:48.764Z,0.45
2018-02-01T05:50:49.797Z,0.45
2018-02-01T05:51:48.763Z,0.44
2018-02-01T05:52:48.785Z,0.43
2018-02-01T05:53:48.771Z,0.43
2018-02-01T05:54:48.823Z,0.43
2018-02-01T05:55:48.781Z,0.40
2018-02-01T05:56:48.827Z,0.40
2018-02-01T05:57:48.781Z,0.40
2018-02-01T05:58:48.844Z,0.40
2018-02-01T05:59:48.779Z,0.37
2018-02-01T06:00:49.860Z,0.36
2018-02-01T06:01:48.789Z,0.37
2018-02-01T06:02:48.850Z,0.36
2018-02-01T06:03:48.789Z,0.40
2018-02-01T06:04:48.865Z,0.40
2018-02-01T06:05:48.801Z,0.37
2018-02-01T06:06:48.884Z,0.40
2018-02-01T06:07:48.815Z,0.40
2018-02-01T06:08:48.820Z,0.37
2018-02-01T06:09:50.843Z,0.37
2018-02-01T06:10:48.822Z,0.36
2018-02-01T06:11:48.904Z,0.35
2018-02-01T06:12:48.816Z,0.35
2018-02-01T06:13:48.940Z,0.35
2018-02-01T06:14:48.830Z,0.35
2018-02-01T06:15:48.938Z,0.33
2018-02-01T06:16:48.840Z,0.35
2018-02-01T06:17:48.952Z,0.35
2018-02-01T06:18:48.849Z,0.33
2018-02-01T06:19:48.871Z,0.33
2018-02-01T06:20:48.836Z,0.32
2018-02-01T06:21:48.877Z,0.32
2018-02-01T06:22:48.844Z,0.30
2018-02-01T06:23:48.883Z,0.30
2018-02-01T06:24:48.848Z,0.29
2018-02-01T06:25:48.897Z,0.27
2018-02-01T06:26:48.910Z,0.27
2018-02-01T06:27:48.912Z,0.26
2018-02-01T06:28:48.872Z,0.26
2018-02-01T06:29:48.870Z,0.25
2018-02-01T06:30:48.934Z,0.23
2018-02-01T06:31:48.879Z,0.22
2018-02-01T06:32:48.939Z,0.18
2018-02-01T06:33:48.899Z,0.20
2018-02-01T06:34:48.972Z,0.18
2018-02-01T06:35:48.906Z,0.18
2018-02-01T06:36:48.966Z,0.17
2018-02-01T06:37:48.953Z,0.17
2018-02-01T06:38:50.006Z,0.15
2018-02-01T06:39:48.908Z,0.14
2018-02-01T06:40:48.897Z,0.14
2018-02-01T06:41:48.896Z,0.15
2018-02-01T06:42:49.108Z,0.15
2018-02-01T06:43:49.122Z,0.15
2018-02-01T06:44:49.019Z,0.17
2018-02-01T06:45:48.919Z,0.18
2018-02-01T06:46:48.925Z,0.20
2018-02-01T06:47:48.934Z,0.22
2018-02-01T06:48:49.978Z,0.23
2018-02-01T06:49:48.921Z,0.25
2018-02-01T06:50:48.963Z,0.25
2018-02-01T06:51:48.923Z,0.23
2018-02-01T06:52:48.981Z,0.25
2018-02-01T06:53:48.933Z,0.23
2018-02-01T06:54:48.987Z,0.25
2018-02-01T06:55:48.940Z,0.23
2018-02-01T06:56:48.987Z,0.23
2018-02-01T06:57:48.950Z,0.23
2018-02-01T06:58:48.959Z,0.23
2018-02-01T06:59:49.008Z,0.23
2018-02-01T07:00:48.953Z,0.25
2018-02-01T07:01:49.020Z,0.23
2018-02-01T07:02:48.957Z,0.23
2018-02-01T07:03:49.035Z,0.23
2018-02-01T07:04:48.959Z,0.25
2018-02-01T07:05:48.985Z,0.27
2018-02-01T07:06:49.048Z,0.27
2018-02-01T07:07:48.969Z,0.26
2018-02-01T07:08:48.986Z,0.25
2018-02-01T07:09:49.071Z,0.25
2018-02-01T07:10:48.979Z,0.25
2018-02-01T07:11:49.081Z,0.25
2018-02-01T07:12:48.983Z,0.23
2018-02-01T07:13:48.992Z,0.23
2018-02-01T07:14:49.005Z,0.25
2018-02-01T07:15:48.987Z,0.25
2018-02-01T07:16:51.083Z,0.25
2018-02-01T07:17:48.992Z,0.23
2018-02-01T07:18:49.025Z,0.23
2018-02-01T07:19:49.005Z,0.23
2018-02-01T07:20:49.059Z,0.22
2018-02-01T07:21:49.005Z,0.22
2018-02-01T07:22:49.052Z,0.22
2018-02-01T07:23:49.022Z,0.23
2018-02-01T07:24:51.113Z,0.22
2018-02-01T07:25:49.031Z,0.23
2018-02-01T07:26:49.031Z,0.23
2018-02-01T07:27:49.023Z,0.22
2018-02-01T07:28:49.090Z,0.23
2018-02-01T07:29:49.058Z,0.25
2018-02-01T07:30:50.148Z,0.23
2018-02-01T07:31:49.033Z,0.25
2018-02-01T07:32:49.144Z,0.25
2018-02-01T07:33:49.048Z,0.27
2018-02-01T07:34:49.039Z,0.29
2018-02-01T07:35:49.182Z,0.29
2018-02-01T07:36:49.047Z,0.30
2018-02-01T07:37:49.154Z,0.30
2018-02-01T07:38:49.058Z,0.30
2018-02-01T07:39:49.270Z,0.30
2018-02-01T07:40:49.071Z,0.32
2018-02-01T07:41:50.096Z,0.30
2018-02-01T07:42:49.060Z,0.29
2018-02-01T07:43:49.069Z,0.32
2018-02-01T07:44:49.072Z,0.33
2018-02-01T07:45:49.098Z,0.37
2018-02-01T07:46:49.079Z,0.41
2018-02-01T07:47:49.106Z,0.47
2018-02-01T07:48:49.082Z,0.50
2018-02-01T07:49:49.126Z,0.50
2018-02-01T07:50:49.085Z,0.50
2018-02-01T07:51:49.134Z,0.50
2018-02-01T07:52:49.111Z,0.51
2018-02-01T07:53:49.154Z,0.53
2018-02-01T07:54:49.104Z,0.56
2018-02-01T07:55:50.192Z,0.64
2018-02-01T07:56:49.119Z,0.69
2018-02-01T07:57:49.174Z,0.76
2018-02-01T07:58:49.103Z,0.84
2018-02-01T07:59:49.124Z,0.88
2018-02-01T08:00:49.194Z,0.90
2018-02-01T08:01:49.109Z,0.92
2018-02-01T08:02:49.124Z,0.92
2018-02-01T08:03:49.208Z,0.91
2018-02-01T08:04:49.124Z,0.88
2018-02-01T08:05:51.187Z,0.90
2018-02-01T08:06:49.121Z,0.87
2018-02-01T08:07:49.161Z,0.87
2018-02-01T08:08:49.141Z,0.82
2018-02-01T08:09:49.136Z,0.81
2018-02-01T08:10:49.151Z,0.82
2018-02-01T08:11:49.145Z,0.84
2018-02-01T08:12:49.164Z,0.87
2018-02-01T08:13:49.142Z,0.91
2018-02-01T08:14:54.002Z,0.91
2018-02-01T08:15:49.171Z,0.91
2018-02-01T08:16:50.214Z,0.91
2018-02-01T08:17:49.157Z,0.90
2018-02-01T08:18:49.205Z,0.90
2018-02-01T08:19:49.172Z,0.88
2018-02-01T08:20:51.279Z,0.88
2018-02-01T08:21:49.155Z,0.88
2018-02-01T08:22:49.241Z,0.88
2018-02-01T08:23:49.167Z,0.91
2018-02-01T08:24:51.191Z,0.90
2018-02-01T08:25:49.175Z,0.92
2018-02-01T08:26:49.260Z,0.94
2018-02-01T08:27:49.178Z,0.94
2018-02-01T08:28:49.271Z,0.96
2018-02-01T08:29:49.196Z,1.00
2018-02-01T08:30:49.279Z,1.02
2018-02-01T08:31:49.201Z,1.02
2018-02-01T08:32:49.298Z,1.03
2018-02-01T08:33:49.201Z,1.03
2018-02-01T08:34:49.218Z,1.03
2018-02-01T08:35:49.846Z,1.06
2018-02-01T08:36:49.224Z,1.08
2018-02-01T08:37:49.201Z,1.10
2018-02-01T08:38:49.236Z,1.13
2018-02-01T08:39:49.212Z,1.13
2018-02-01T08:40:49.245Z,1.17
2018-02-01T08:41:49.222Z,1.17
2018-02-01T08:42:49.236Z,1.21
2018-02-01T08:43:50.291Z,1.23
2018-02-01T08:44:49.237Z,1.24
2018-02-01T08:45:49.287Z,1.27
2018-02-01T08:46:49.247Z,1.27
2018-02-01T08:47:49.288Z,1.28
2018-02-01T08:48:49.231Z,1.31
2018-02-01T08:49:49.262Z,1.31
2018-02-01T08:50:50.339Z,1.34
2018-02-01T08:51:49.249Z,1.35
2018-02-01T08:52:50.344Z,1.38
2018-02-01T08:53:49.250Z,1.39
2018-02-01T08:54:49.347Z,1.39
2018-02-01T08:55:49.245Z,1.39
2018-02-01T08:56:49.370Z,1.42
2018-02-01T08:57:49.258Z,1.44
2018-02-01T08:58:49.367Z,1.44
2018-02-01T08:59:49.266Z,1.46
2018-02-01T09:00:49.374Z,1.49
2018-02-01T09:01:49.292Z,1.49
2018-02-01T09:02:49.285Z,1.55
2018-02-01T09:03:49.276Z,1.59
2018-02-01T09:04:50.335Z,1.60
2018-02-01T09:05:49.281Z,1.63
2018-02-01T09:06:49.348Z,1.64
2018-02-01T09:07:49.291Z,1.64
2018-02-01T09:08:49.325Z,1.67
2018-02-01T09:09:49.303Z,1.69
2018-02-01T09:10:50.366Z,1.73
2018-02-01T09:11:49.306Z,1.74
2018-02-01T09:12:49.299Z,1.75
2018-02-01T09:13:49.305Z,1.78
2018-02-01T09:14:49.313Z,1.80
2018-02-01T09:15:49.343Z,1.84
2018-02-01T09:16:50.397Z,1.87
2018-02-01T09:17:49.315Z,1.91
2018-02-01T09:18:49.384Z,1.92
2018-02-01T09:19:49.351Z,1.97
2018-02-01T09:20:51.344Z,2.00
2018-02-01T09:21:49.332Z,2.03
2018-02-01T09:22:49.425Z,2.06
2018-02-01T09:23:49.327Z,2.12
2018-02-01T09:24:49.429Z,2.15
2018-02-01T09:25:49.336Z,2.18
2018-02-01T09:26:49.440Z,2.22
2018-02-01T09:27:49.342Z,2.28
2018-02-01T09:28:49.453Z,2.30
2018-02-01T09:29:49.378Z,2.35
2018-02-01T09:30:49.471Z,2.39
2018-02-01T09:31:49.392Z,2.42
2018-02-01T09:32:51.423Z,2.45
2018-02-01T09:33:49.358Z,2.47
2018-02-01T09:34:49.370Z,2.50
2018-02-01T09:35:49.396Z,2.50
2018-02-01T09:36:49.380Z,2.53
2018-02-01T09:37:50.428Z,2.54
2018-02-01T09:38:49.379Z,2.55
2018-02-01T09:39:49.392Z,2.55
2018-02-01T09:40:50.447Z,2.55
2018-02-01T09:41:49.403Z,2.57
2018-02-01T09:42:49.440Z,2.58
2018-02-01T09:43:49.392Z,2.60
2018-02-01T09:44:51.500Z,2.65
2018-02-01T09:45:49.411Z,2.69
2018-02-01T09:46:49.470Z,2.76
2018-02-01T09:47:49.404Z,2.82
2018-02-01T09:48:49.488Z,2.89
2018-02-01T09:49:49.410Z,2.94
2018-02-01T09:50:49.518Z,2.99
2018-02-01T09:51:49.434Z,3.05
2018-02-01T09:52:49.507Z,3.11
2018-02-01T09:53:49.418Z,3.17
2018-02-01T09:54:50.545Z,3.25
2018-02-01T09:55:49.486Z,3.26
2018-02-01T09:56:49.539Z,3.30
2018-02-01T09:57:49.435Z,3.35
2018-02-01T09:58:49.540Z,3.37
2018-02-01T09:59:49.473Z,3.44
2018-02-01T10:00:49.500Z,3.49
2018-02-01T10:01:49.484Z,3.52
2018-02-01T10:02:49.451Z,3.54
2018-02-01T10:03:49.470Z,3.55
2018-02-01T10:04:49.462Z,3.59
2018-02-01T10:05:49.456Z,3.62
2018-02-01T10:06:49.487Z,3.63
2018-02-01T10:07:49.468Z,3.67
2018-02-01T10:08:49.502Z,3.72
2018-02-01T10:09:49.481Z,3.76
2018-02-01T10:10:49.529Z,3.76
2018-02-01T10:11:49.497Z,3.74
2018-02-01T10:12:49.531Z,3.73
2018-02-01T10:13:49.510Z,3.70
2018-02-01T10:14:49.508Z,3.70
2018-02-01T10:15:49.553Z,3.67
2018-02-01T10:16:49.511Z,3.64
2018-02-01T10:17:49.567Z,3.60
2018-02-01T10:18:49.517Z,3.59
2018-02-01T10:19:49.677Z,3.55
2018-02-01T10:20:49.595Z,3.55
2018-02-01T10:21:49.591Z,3.59
2018-02-01T10:22:49.520Z,3.64
2018-02-01T10:23:49.608Z,3.69
2018-02-01T10:24:49.526Z,3.76
2018-02-01T10:25:49.619Z,3.82
2018-02-01T10:26:49.557Z,3.90
2018-02-01T10:27:49.728Z,3.99
2018-02-01T10:28:49.526Z,4.05
2018-02-01T10:29:49.648Z,4.10
2018-02-01T10:30:49.638Z,4.18
2018-02-01T10:31:49.583Z,4.24
2018-02-01T10:32:49.555Z,4.30
2018-02-01T10:33:49.555Z,4.35
2018-02-01T10:34:49.576Z,4.41
2018-02-01T10:35:49.580Z,4.43
2018-02-01T10:36:49.560Z,4.48
2018-02-01T10:37:49.677Z,4.49
2018-02-01T10:38:49.584Z,4.53
2018-02-01T10:39:49.616Z,4.54
2018-02-01T10:40:49.583Z,4.56
2018-02-01T10:41:49.653Z,4.56
2018-02-01T10:42:49.581Z,4.54
2018-02-01T10:43:49.629Z,4.54
2018-02-01T10:44:49.610Z,4.49
2018-02-01T10:45:49.645Z,4.46
2018-02-01T10:46:49.610Z,4.45
2018-02-01T10:47:49.670Z,4.41
2018-02-01T10:48:49.631Z,4.38
2018-02-01T10:49:50.692Z,4.31
2018-02-01T10:50:49.611Z,4.27
2018-02-01T10:51:49.686Z,4.24
2018-02-01T10:52:49.609Z,4.20
2018-02-01T10:53:49.695Z,4.17
2018-02-01T10:54:49.632Z,4.17
2018-02-01T10:55:50.728Z,4.17
2018-02-01T10:56:49.628Z,4.17
2018-02-01T10:57:49.727Z,4.18
2018-02-01T10:58:49.654Z,4.18
2018-02-01T10:59:49.733Z,4.17
2018-02-01T11:00:49.638Z,4.18
2018-02-01T11:01:49.749Z,4.16
2018-02-01T11:02:49.641Z,4.13
2018-02-01T11:03:49.657Z,4.13
2018-02-01T11:04:49.945Z,4.17
2018-02-01T11:05:49.662Z,4.18
2018-02-01T11:06:49.713Z,4.17
2018-02-01T11:07:49.685Z,4.13
2018-02-01T11:08:49.652Z,4.13
2018-02-01T11:09:49.785Z,4.10
2018-02-01T11:10:49.679Z,4.10
2018-02-01T11:11:49.706Z,4.09
2018-02-01T11:12:49.717Z,4.08
2018-02-01T11:13:49.713Z,4.06
2018-02-01T11:14:49.681Z,4.05
2018-02-01T11:15:49.738Z,4.03
2018-02-01T11:16:49.674Z,4.00
2018-02-01T11:17:49.746Z,3.98
2018-02-01T11:18:49.722Z,3.96
2018-02-01T11:19:49.761Z,3.92
2018-02-01T11:20:49.713Z,3.92
2018-02-01T11:21:49.771Z,3.92
2018-02-01T11:22:49.696Z,3.92
2018-02-01T11:23:49.734Z,3.94
2018-02-01T11:24:49.792Z,3.94
2018-02-01T11:25:49.704Z,3.94
2018-02-01T11:26:49.802Z,3.96
2018-02-01T11:27:49.716Z,3.94
2018-02-01T11:28:49.814Z,3.96
2018-02-01T11:29:49.721Z,3.96
2018-02-01T11:30:49.829Z,3.94
2018-02-01T11:31:49.745Z,3.92
2018-02-01T11:32:49.736Z,3.92
2018-02-01T11:33:49.726Z,3.92
2018-02-01T11:34:49.748Z,3.91
2018-02-01T11:35:49.739Z,3.92
2018-02-01T11:36:49.766Z,3.94
2018-02-01T11:37:49.736Z,3.96
2018-02-01T11:38:49.756Z,3.94
2018-02-01T11:39:49.896Z,3.92
2018-02-01T11:40:49.753Z,3.92
2018-02-01T11:41:49.819Z,3.91
2018-02-01T11:42:49.753Z,3.92
2018-02-01T11:43:49.814Z,3.91
2018-02-01T11:44:49.782Z,3.91
2018-02-01T11:45:49.862Z,3.92
2018-02-01T11:46:49.766Z,3.94
2018-02-01T11:47:49.858Z,3.98
2018-02-01T11:48:49.851Z,4.02
2018-02-01T11:49:49.856Z,4.05
2018-02-01T11:50:49.783Z,4.08
2018-02-01T11:51:49.866Z,4.08
2018-02-01T11:52:49.778Z,4.06
2018-02-01T11:53:49.877Z,4.05
2018-02-01T11:54:49.792Z,4.03
2018-02-01T11:55:49.894Z,4.00
2018-02-01T11:56:49.795Z,4.00
2018-02-01T11:57:50.826Z,3.98
2018-02-01T11:58:49.807Z,3.94
2018-02-01T11:59:49.909Z,3.96
2018-02-01T12:00:49.815Z,3.92
2018-02-01T12:01:49.821Z,3.91
2018-02-01T12:02:49.818Z,3.92
2018-02-01T12:03:49.834Z,3.98
2018-02-01T12:04:49.816Z,3.98
2018-02-01T12:05:49.850Z,4.02
2018-02-01T12:06:49.853Z,4.06
2018-02-01T12:07:49.861Z,4.08
2018-02-01T12:08:49.839Z,4.09
2018-02-01T12:09:49.884Z,4.10
2018-02-01T12:10:49.843Z,4.10
2018-02-01T12:11:49.930Z,4.09
2018-02-01T12:12:49.855Z,4.05
2018-02-01T12:13:49.900Z,3.98
2018-02-01T12:14:49.856Z,3.91
2018-02-01T12:15:51.960Z,3.85
2018-02-01T12:16:49.855Z,3.82
2018-02-01T12:17:49.930Z,3.82
2018-02-01T12:18:49.863Z,3.85
2018-02-01T12:19:49.951Z,3.88
2018-02-01T12:20:49.877Z,3.94
2018-02-01T12:21:49.952Z,3.99
2018-02-01T12:22:49.870Z,4.08
2018-02-01T12:23:49.964Z,4.12
2018-02-01T12:24:49.883Z,4.20
2018-02-01T12:25:51.924Z,4.26
2018-02-01T12:26:49.882Z,4.28
2018-02-01T12:27:49.992Z,4.34
2018-02-01T12:28:49.889Z,4.36
2018-02-01T12:29:50.006Z,4.39
2018-02-01T12:30:49.897Z,4.42
2018-02-01T12:31:49.910Z,4.45
2018-02-01T12:32:49.903Z,4.48
2018-02-01T12:33:49.939Z,4.49
2018-02-01T12:34:49.934Z,4.49
2018-02-01T12:35:50.978Z,4.49
2018-02-01T12:36:49.917Z,4.48
2018-02-01T12:37:49.968Z,4.48
2018-02-01T12:38:49.929Z,4.49
2018-02-01T12:39:50.993Z,4.51
2018-02-01T12:40:49.932Z,4.54
2018-02-01T12:41:49.983Z,4.53
2018-02-01T12:42:50.000Z,4.56
2018-02-01T12:43:49.993Z,4.56
2018-02-01T12:44:49.933Z,4.56
2018-02-01T12:45:50.007Z,4.54
2018-02-01T12:46:49.936Z,4.53
2018-02-01T12:47:50.029Z,4.54
2018-02-01T12:48:49.962Z,4.53
2018-02-01T12:49:51.054Z,4.56
2018-02-01T12:50:49.951Z,4.59
2018-02-01T12:51:50.050Z,4.64
2018-02-01T12:52:49.953Z,4.69
2018-02-01T12:53:50.051Z,4.75
2018-02-01T12:54:49.966Z,4.82
2018-02-01T12:55:52.009Z,4.86
2018-02-01T12:56:49.974Z,4.91
2018-02-01T12:57:50.077Z,4.98
2018-02-01T12:58:49.970Z,5.04
2018-02-01T12:59:51.031Z,5.11
2018-02-01T13:00:49.984Z,5.19
2018-02-01T13:01:51.039Z,5.25
2018-02-01T13:02:49.984Z,5.34
2018-02-01T13:03:50.021Z,5.39
2018-02-01T13:04:49.987Z,5.43
2018-02-01T13:05:50.027Z,5.50
2018-02-01T13:06:49.998Z,5.52
2018-02-01T13:07:50.053Z,5.54
2018-02-01T13:08:50.009Z,5.54
2018-02-01T13:09:50.060Z,5.51
2018-02-01T13:10:50.023Z,5.47
2018-02-01T13:11:50.075Z,5.44
2018-02-01T13:12:50.015Z,5.39
2018-02-01T13:13:51.114Z,5.36
2018-02-01T13:14:50.025Z,5.32
2018-02-01T13:15:50.099Z,5.27
2018-02-01T13:16:50.025Z,5.21
2018-02-01T13:17:50.115Z,5.15
2018-02-01T13:18:50.029Z,5.06